Time;durP1;ratioP1;P1;durP2;ratioP2;P2;SDS_P1;SDS_P2;PMS_P1;PMS_P2;Temp;Humidity;BMP_temperature;BMP_pressure;BME280_temperature;BME280_humidity;BME280_pressure;Samples;Min_cycle;Max_cycle;Signal;HPM_P1;HPM_P2
2024/01/30 03:18:02;;;;;;;31.17;17.73;;;;;;;;;;6303697;22;20087;-91
2024/01/30 03:20:29;;;;;;;33.80;18.88;;;;;;;;;;6312346;22;19999;-93
2024/01/30 03:22:54;;;;;;;34.55;18.38;;;;;;;;;;6340811;22;20437;-91
2024/01/30 03:25:20;;;;;;;30.23;17.75;;;;;;;;;;6312315;22;20120;-91
2024/01/30 03:27:45;;;;;;;32.42;17.95;;;;;;;;;;6314266;22;20002;-93
2024/01/30 03:30:11;;;;;;;40.90;21.42;;;;;;;;;;6339983;22;20364;-93
2024/01/30 03:32:37;;;;;;;47.72;22.92;;;;;;;;;;6343647;22;20469;-92
2024/01/30 03:35:02;;;;;;;52.00;25.13;;;;;;;;;;6311710;22;20017;-93
2024/01/30 03:37:27;;;;;;;52.42;24.92;;;;;;;;;;6315947;22;20356;-91
2024/01/30 03:39:53;;;;;;;58.80;25.50;;;;;;;;;;6312120;22;20301;-93
2024/01/30 03:42:18;;;;;;;53.40;26.63;;;;;;;;;;6313801;22;19991;-94
2024/01/30 03:44:44;;;;;;;52.97;24.38;;;;;;;;;;6341385;22;20358;-92
2024/01/30 03:47:09;;;;;;;36.67;20.55;;;;;;;;;;6313793;22;20026;-91
2024/01/30 03:49:35;;;;;;;47.80;22.50;;;;;;;;;;6311747;22;20436;-93
2024/01/30 03:52:00;;;;;;;50.30;24.10;;;;;;;;;;6315351;22;19999;-91
2024/01/30 03:54:25;;;;;;;49.47;22.52;;;;;;;;;;6341200;22;19993;-92
2024/01/30 03:56:51;;;;;;;39.25;21.05;;;;;;;;;;6341234;22;20421;-92
2024/01/30 03:59:22;;;;;;;47.13;21.88;;;;;;;;;;6340550;22;20002;-91
2024/01/30 04:01:52;;;;;;;46.45;22.65;;;;;;;;;;6341021;22;20002;-92
2024/01/30 04:04:18;;;;;;;44.55;22.52;;;;;;;;;;6339595;22;19991;-91
2024/01/30 04:06:44;;;;;;;51.95;23.15;;;;;;;;;;6312355;22;19995;-93
2024/01/30 04:09:09;;;;;;;51.80;24.30;;;;;;;;;;6312782;22;20018;-91
2024/01/30 04:11:35;;;;;;;48.67;23.67;;;;;;;;;;6310973;22;19991;-90
2024/01/30 04:14:00;;;;;;;46.28;24.17;;;;;;;;;;6312901;22;20006;-90
2024/01/30 04:16:26;;;;;;;46.33;23.70;;;;;;;;;;6311649;22;20061;-90
2024/01/30 04:18:55;;;;;;;45.75;23.00;;;;;;;;;;6314763;22;20025;-91
2024/01/30 04:21:24;;;;;;;49.95;23.25;;;;;;;;;;6343334;22;20076;-93
2024/01/30 04:23:51;;;;;;;50.17;25.00;;;;;;;;;;6347819;22;20026;-92
2024/01/30 04:26:16;;;;;;;45.78;24.00;;;;;;;;;;6349544;22;19995;-93
2024/01/30 04:28:42;;;;;;;44.92;23.33;;;;;;;;;;6323675;22;20379;-92
2024/01/30 04:31:07;;;;;;;46.90;22.48;;;;;;;;;;6323001;22;20477;-92
2024/01/30 04:33:33;;;;;;;47.67;23.17;;;;;;;;;;6325131;22;20002;-91
2024/01/30 04:35:58;;;;;;;51.95;25.33;;;;;;;;;;6349819;22;19995;-93
2024/01/30 04:38:24;;;;;;;47.88;23.98;;;;;;;;;;6325800;22;20017;-93
2024/01/30 04:40:49;;;;;;;51.83;24.35;;;;;;;;;;6296968;22;20394;-93
2024/01/30 04:43:15;;;;;;;48.80;23.65;;;;;;;;;;6330018;22;19999;-93
2024/01/30 04:45:41;;;;;;;45.08;22.95;;;;;;;;;;6358373;22;19998;-94
2024/01/30 04:48:06;;;;;;;43.10;21.50;;;;;;;;;;6354926;22;19986;-92
2024/01/30 04:50:32;;;;;;;47.42;23.42;;;;;;;;;;6330107;22;20424;-91
2024/01/30 04:52:57;;;;;;;54.28;24.00;;;;;;;;;;6328144;22;20078;-92
2024/01/30 04:55:23;;;;;;;53.40;24.25;;;;;;;;;;6333655;22;20017;-91
2024/01/30 04:57:48;;;;;;;43.50;23.13;;;;;;;;;;6335902;22;20009;-89
2024/01/30 05:00:14;;;;;;;34.35;20.48;;;;;;;;;;6359616;22;19995;-90
2024/01/30 05:02:39;;;;;;;37.17;21.52;;;;;;;;;;6336745;22;19998;-92
2024/01/30 05:05:05;;;;;;;33.53;17.98;;;;;;;;;;6332291;22;20024;-91
2024/01/30 05:07:30;;;;;;;30.55;17.35;;;;;;;;;;6359622;22;20043;-92
2024/01/30 05:09:55;;;;;;;26.55;16.73;;;;;;;;;;6332575;22;20025;-92
2024/01/30 05:12:24;;;;;;;27.90;17.08;;;;;;;;;;6328244;22;20390;-90
2024/01/30 05:14:49;;;;;;;29.92;18.33;;;;;;;;;;6355013;22;19999;-90
2024/01/30 05:17:14;;;;;;;30.77;17.60;;;;;;;;;;6358059;22;20098;-91
2024/01/30 05:19:47;;;;;;;27.38;19.23;;;;;;;;;;6336977;22;20025;-92
2024/01/30 05:22:17;;;;;;;26.70;18.17;;;;;;;;;;6368369;22;20037;-90
2024/01/30 05:24:43;;;;;;;30.00;18.20;;;;;;;;;;6352669;22;20002;-90
2024/01/30 05:27:15;;;;;;;38.65;20.17;;;;;;;;;;6342524;22;19983;-92
2024/01/30 05:29:43;;;;;;;28.60;17.90;;;;;;;;;;6367907;22;19990;-92
2024/01/30 05:32:09;;;;;;;28.52;17.45;;;;;;;;;;6368855;22;19999;-91
2024/01/30 05:34:36;;;;;;;24.70;16.30;;;;;;;;;;6342707;22;20042;-91
2024/01/30 05:37:01;;;;;;;23.00;14.73;;;;;;;;;;6341737;22;20022;-94
2024/01/30 05:39:27;;;;;;;27.77;14.88;;;;;;;;;;6341862;22;20014;-91
2024/01/30 05:41:52;;;;;;;23.70;14.43;;;;;;;;;;6341768;22;20014;-92
2024/01/30 05:44:18;;;;;;;23.52;14.85;;;;;;;;;;6341363;22;19987;-93
2024/01/30 05:46:53;;;;;;;33.80;15.85;;;;;;;;;;6343225;22;19995;-93
2024/01/30 05:49:21;;;;;;;25.25;14.25;;;;;;;;;;6315757;22;20002;-93
2024/01/30 05:51:47;;;;;;;24.08;14.35;;;;;;;;;;6339383;22;19987;-92
2024/01/30 05:54:21;;;;;;;22.70;13.50;;;;;;;;;;6331700;22;20005;-94
2024/01/30 05:56:47;;;;;;;21.25;13.35;;;;;;;;;;6329541;22;20055;-93
2024/01/30 05:59:12;;;;;;;20.98;13.90;;;;;;;;;;6324398;22;20006;-93
2024/01/30 06:01:38;;;;;;;23.88;14.13;;;;;;;;;;6353832;22;20082;-94
2024/01/30 06:04:03;;;;;;;29.23;16.55;;;;;;;;;;6356172;22;19990;-91
2024/01/30 06:06:29;;;;;;;29.02;16.25;;;;;;;;;;6356890;22;20007;-92
2024/01/30 06:08:56;;;;;;;25.80;15.38;;;;;;;;;;6319346;22;19998;-91
2024/01/30 06:11:21;;;;;;;35.88;17.75;;;;;;;;;;6321699;22;19999;-92
2024/01/30 06:13:49;;;;;;;28.17;15.40;;;;;;;;;;6318817;22;20059;-91
2024/01/30 06:16:15;;;;;;;30.73;16.65;;;;;;;;;;6320133;22;20005;-92
2024/01/30 06:18:40;;;;;;;25.38;15.85;;;;;;;;;;6318632;22;20056;-92
2024/01/30 06:21:06;;;;;;;31.80;15.25;;;;;;;;;;6319860;22;20016;-92
2024/01/30 06:23:31;;;;;;;28.15;14.75;;;;;;;;;;6317618;22;20059;-92
2024/01/30 06:25:56;;;;;;;21.90;13.63;;;;;;;;;;6347342;22;20007;-92
2024/01/30 06:28:22;;;;;;;25.77;14.45;;;;;;;;;;6318176;22;20010;-92
2024/01/30 06:30:47;;;;;;;27.52;13.18;;;;;;;;;;6316411;22;19998;-89
2024/01/30 06:33:13;;;;;;;22.10;13.45;;;;;;;;;;6313718;22;19995;-92
2024/01/30 06:35:41;;;;;;;29.90;13.35;;;;;;;;;;6343116;22;20077;-93
2024/01/30 06:38:07;;;;;;;27.13;13.93;;;;;;;;;;6339737;22;19987;-92
2024/01/30 06:40:36;;;;;;;32.38;19.02;;;;;;;;;;6314882;22;20005;-94
2024/01/30 06:43:02;;;;;;;29.52;14.82;;;;;;;;;;6343096;22;20010;-92
2024/01/30 06:45:44;;;;;;;33.67;16.48;;;;;;;;;;6319004;22;20027;-92
2024/01/30 06:48:09;;;;;;;35.72;14.98;;;;;;;;;;6316783;22;20082;-91
2024/01/30 06:50:35;;;;;;;25.35;13.10;;;;;;;;;;6351132;22;19983;-91
2024/01/30 06:53:00;;;;;;;23.52;13.65;;;;;;;;;;6366695;22;20084;-92
2024/01/30 15:56:38;;;;;;;55.35;6.57;;;;;;;;;;6221362;23;20062;-93
2024/01/30 22:17:32;;;;;;;24.55;3.95;;;;;;;;;;6296721;22;20510;-96
2024/01/30 22:20:11;;;;;;;;;;;;;;;;;;;;;
2024/01/30 22:22:54;;;;;;;22.83;2.53;;;;;;;;;;6316150;22;19943;-95
2024/01/30 22:26:02;;;;;;;;;;;;;;;;;;;;;
2024/01/30 22:29:18;;;;;;;19.90;2.20;;;;;;;;;;6326054;22;20055;-92
2024/01/30 22:32:23;;;;;;;;;;;;;;;;;;;;;
